createdAt,value
2022-11-13T00:00:19.100Z,3.82
2022-11-13T00:03:05.002Z,3.90
2022-11-13T00:06:01.161Z,3.98
2022-11-13T00:08:47.794Z,3.85
2022-11-13T00:11:33.918Z,3.70
2022-11-13T00:14:19.673Z,3.45
2022-11-13T00:17:05.615Z,3.53
2022-11-13T00:19:51.350Z,3.67
2022-11-13T00:22:37.537Z,3.76
2022-11-13T00:25:23.235Z,3.86
2022-11-13T00:28:09.103Z,3.82
2022-11-13T00:30:59.460Z,3.93
2022-11-13T00:34:09.109Z,3.63
2022-11-13T00:36:51.207Z,3.09
2022-11-13T00:39:37.475Z,3.28
2022-11-13T00:42:23.338Z,3.37
2022-11-13T00:45:09.265Z,3.42
2022-11-13T00:47:55.858Z,3.52
2022-11-13T00:50:41.612Z,3.49
2022-11-13T00:53:27.288Z,3.44
2022-11-13T00:56:13.130Z,2.93
2022-11-13T00:58:58.874Z,2.92
2022-11-13T01:01:44.774Z,2.92
2022-11-13T01:04:31.304Z,3.01
2022-11-13T01:07:17.483Z,3.02
2022-11-13T01:10:05.633Z,3.06
2022-11-13T01:12:51.552Z,3.21
2022-11-13T01:15:41.095Z,3.32
2022-11-13T01:18:27.475Z,3.17
2022-11-13T01:21:16.689Z,3.03
2022-11-13T01:24:02.938Z,2.73
2022-11-13T01:26:48.722Z,2.87
2022-11-13T01:29:34.570Z,2.48
2022-11-13T01:32:20.695Z,2.67
2022-11-13T01:35:07.006Z,2.80
2022-11-13T01:37:53.463Z,2.85
2022-11-13T01:40:46.400Z,2.78
2022-11-13T01:43:35.171Z,2.83
2022-11-13T01:46:31.500Z,2.93
2022-11-13T01:49:31.222Z,2.66
2022-11-13T01:52:20.533Z,2.69
2022-11-13T01:55:16.800Z,2.68
2022-11-13T01:58:03.596Z,2.62
2022-11-13T02:00:49.695Z,2.72
2022-11-13T02:03:35.769Z,2.78
2022-11-13T02:06:22.087Z,2.92
2022-11-13T02:09:08.363Z,2.79
2022-11-13T02:11:54.240Z,2.77
2022-11-13T02:14:52.884Z,2.81
2022-11-13T02:17:38.728Z,2.90
2022-11-13T02:20:32.767Z,2.95
2022-11-13T02:23:54.721Z,3.00
2022-11-13T02:26:40.394Z,2.90
2022-11-13T02:29:26.567Z,2.93
2022-11-13T02:32:12.644Z,2.80
2022-11-13T02:34:58.372Z,2.99
2022-11-13T02:37:44.305Z,3.11
2022-11-13T02:40:30.402Z,3.18
2022-11-13T02:43:16.203Z,3.10
2022-11-13T02:46:02.203Z,3.26
2022-11-13T02:48:47.843Z,3.22
2022-11-13T02:51:34.082Z,3.16
2022-11-13T02:54:19.749Z,3.17
2022-11-13T02:57:05.480Z,3.13
2022-11-13T02:59:51.852Z,3.20
2022-11-13T03:02:37.618Z,3.25
2022-11-13T03:05:23.702Z,3.20
2022-11-13T03:08:09.875Z,3.24
2022-11-13T03:10:55.635Z,3.24
2022-11-13T03:13:41.478Z,3.13
2022-11-13T03:16:27.473Z,3.16
2022-11-13T03:19:13.663Z,2.79
2022-11-13T03:21:59.800Z,2.85
2022-11-13T03:24:45.707Z,2.63
2022-11-13T03:27:33.186Z,2.05
2022-11-13T03:30:19.535Z,1.73
2022-11-13T03:33:05.278Z,1.82
2022-11-13T03:35:51.114Z,2.09
2022-11-13T03:38:37.692Z,2.28
2022-11-13T03:41:23.885Z,2.39
2022-11-13T03:44:09.588Z,2.41
2022-11-13T03:46:55.195Z,1.70
2022-11-13T03:49:40.892Z,1.54
2022-11-13T03:52:26.844Z,1.73
2022-11-13T03:55:12.534Z,1.90
2022-11-13T03:57:59.413Z,1.95
2022-11-13T04:00:46.540Z,1.64
2022-11-13T04:03:32.371Z,1.33
2022-11-13T04:06:18.553Z,1.58
2022-11-13T04:09:04.353Z,1.58
2022-11-13T04:11:50.116Z,1.40
2022-11-13T04:14:35.829Z,1.04
2022-11-13T04:17:21.490Z,0.99
2022-11-13T04:20:10.144Z,1.03
2022-11-13T04:22:57.138Z,0.74
2022-11-13T04:25:43.055Z,0.96
2022-11-13T04:28:29.861Z,1.14
2022-11-13T04:31:15.931Z,0.96
2022-11-13T04:34:01.770Z,1.03
2022-11-13T04:36:47.783Z,1.02
2022-11-13T04:39:33.897Z,0.97
2022-11-13T04:42:38.171Z,1.10
2022-11-13T04:45:27.527Z,1.06
2022-11-13T04:48:13.350Z,1.21
2022-11-13T04:50:59.263Z,1.05
2022-11-13T04:53:45.135Z,1.20
2022-11-13T04:56:31.003Z,0.90
2022-11-13T04:59:16.892Z,0.88
2022-11-13T05:02:03.000Z,0.91
2022-11-13T05:04:49.108Z,1.15
2022-11-13T05:07:35.224Z,1.25
2022-11-13T05:10:22.015Z,1.02
2022-11-13T05:13:08.065Z,0.77
2022-11-13T05:16:00.898Z,0.76
2022-11-13T05:18:46.605Z,0.78
2022-11-13T05:21:36.120Z,0.89
2022-11-13T05:24:21.993Z,0.93
2022-11-13T05:27:10.475Z,1.13
2022-11-13T05:30:00.270Z,0.82
2022-11-13T05:32:46.269Z,1.18
2022-11-13T05:35:32.453Z,1.28
2022-11-13T05:38:18.230Z,1.15
2022-11-13T05:41:05.986Z,1.07
2022-11-13T05:43:58.022Z,0.95
2022-11-13T05:46:45.210Z,0.84
2022-11-13T05:49:31.207Z,0.98
2022-11-13T05:52:16.909Z,0.83
2022-11-13T05:55:02.990Z,0.73
2022-11-13T05:57:49.162Z,0.69
2022-11-13T06:00:35.296Z,0.83
2022-11-13T06:03:21.189Z,0.75
2022-11-13T06:06:08.567Z,1.06
2022-11-13T06:08:55.527Z,0.76
2022-11-13T06:11:41.646Z,0.57
2022-11-13T06:14:27.495Z,0.64
2022-11-13T06:17:13.579Z,0.63
2022-11-13T06:19:59.570Z,0.80
2022-11-13T06:22:45.675Z,0.86
2022-11-13T06:25:31.459Z,0.78
2022-11-13T06:28:17.369Z,0.68
2022-11-13T06:31:08.587Z,0.71
2022-11-13T06:33:54.682Z,0.93
2022-11-13T06:36:40.363Z,0.96
2022-11-13T06:39:26.339Z,0.94
2022-11-13T06:42:12.541Z,0.91
2022-11-13T06:44:58.194Z,0.95
2022-11-13T06:47:44.212Z,1.05
2022-11-13T06:50:30.487Z,1.04
2022-11-13T06:53:16.867Z,1.06
2022-11-13T06:56:05.860Z,1.14
2022-11-13T06:58:52.404Z,1.18
2022-11-13T07:01:38.867Z,1.33
2022-11-13T07:04:24.933Z,1.50
2022-11-13T07:07:10.957Z,1.58
2022-11-13T07:09:57.330Z,1.75
2022-11-13T07:12:43.741Z,1.89
2022-11-13T07:15:29.735Z,2.00
2022-11-13T07:18:19.005Z,2.11
2022-11-13T07:21:10.043Z,2.21
2022-11-13T07:23:56.149Z,2.35
2022-11-13T07:26:42.126Z,2.45
2022-11-13T07:29:28.038Z,2.59
2022-11-13T07:32:14.623Z,2.66
2022-11-13T07:35:00.916Z,2.79
2022-11-13T07:37:46.708Z,2.91
2022-11-13T07:40:32.536Z,3.01
2022-11-13T07:43:18.433Z,3.11
2022-11-13T07:46:04.295Z,3.14
2022-11-13T07:48:50.083Z,3.36
2022-11-13T07:51:36.331Z,3.52
2022-11-13T07:54:22.125Z,3.63
2022-11-13T07:57:08.126Z,3.81
2022-11-13T07:59:54.877Z,3.87
2022-11-13T08:02:40.652Z,4.07
2022-11-13T08:05:26.369Z,4.20
2022-11-13T08:08:13.442Z,4.11
2022-11-13T08:11:03.806Z,4.16
2022-11-13T08:13:50.043Z,4.35
2022-11-13T08:16:35.957Z,4.44
2022-11-13T08:19:21.819Z,4.62
2022-11-13T08:22:07.421Z,4.73
2022-11-13T08:24:53.881Z,4.87
2022-11-13T08:27:39.712Z,5.14
2022-11-13T08:30:27.269Z,5.11
2022-11-13T08:33:13.522Z,5.23
2022-11-13T08:36:00.303Z,5.22
2022-11-13T08:38:48.119Z,5.43
2022-11-13T08:41:34.213Z,5.48
2022-11-13T08:44:19.951Z,5.72
2022-11-13T08:47:05.886Z,5.78
2022-11-13T08:49:51.825Z,5.93
2022-11-13T08:52:37.883Z,6.07
2022-11-13T08:55:24.093Z,6.06
2022-11-13T08:58:10.263Z,6.31
2022-11-13T09:01:03.332Z,6.38
2022-11-13T09:03:49.947Z,6.58
2022-11-13T09:06:36.394Z,6.69
2022-11-13T09:09:23.423Z,6.80
2022-11-13T09:12:09.448Z,6.94
2022-11-13T09:14:55.408Z,7.05
2022-11-13T09:17:41.547Z,7.36
2022-11-13T09:20:28.523Z,7.50
2022-11-13T09:23:14.592Z,7.55
2022-11-13T09:26:02.108Z,7.67
2022-11-13T09:28:47.872Z,7.85
2022-11-13T09:31:34.197Z,7.86
2022-11-13T09:34:20.542Z,8.16
2022-11-13T09:37:06.352Z,8.27
2022-11-13T09:39:52.159Z,8.32
2022-11-13T09:42:38.417Z,8.46
2022-11-13T09:45:24.360Z,8.69
2022-11-13T09:48:20.825Z,8.76
2022-11-13T09:51:12.778Z,8.90
2022-11-13T09:54:03.312Z,8.96
2022-11-13T09:57:10.955Z,9.12
2022-11-13T10:00:03.422Z,9.27
2022-11-13T10:03:03.284Z,9.31
2022-11-13T10:06:01.446Z,9.35
2022-11-13T10:08:57.593Z,9.60
2022-11-13T10:11:50.972Z,9.69
2022-11-13T10:14:39.941Z,9.98
2022-11-13T10:17:37.020Z,10.05
2022-11-13T10:20:24.810Z,10.10
2022-11-13T10:23:42.934Z,10.22
2022-11-13T10:26:29.622Z,10.21
2022-11-13T10:29:18.214Z,10.31
2022-11-13T10:32:33.835Z,10.47
2022-11-13T10:35:42.523Z,10.62
2022-11-13T10:38:33.950Z,10.68
2022-11-13T10:41:21.370Z,10.85
2022-11-13T10:44:23.209Z,10.88
2022-11-13T10:47:12.022Z,11.14
2022-11-13T10:49:57.936Z,11.14
2022-11-13T10:52:48.698Z,11.13
2022-11-13T10:55:34.464Z,11.31
2022-11-13T10:58:20.747Z,11.40
2022-11-13T11:01:24.837Z,11.35
2022-11-13T11:04:24.178Z,11.48
2022-11-13T11:07:22.564Z,11.50
2022-11-13T11:10:32.351Z,11.61
2022-11-13T11:13:23.122Z,11.78
2022-11-13T11:16:12.311Z,11.83
2022-11-13T11:19:02.395Z,11.86
2022-11-13T11:21:51.415Z,12.01
2022-11-13T11:24:42.221Z,11.95
2022-11-13T11:27:41.830Z,12.08
2022-11-13T11:30:33.397Z,12.01
2022-11-13T11:33:23.567Z,12.18
2022-11-13T11:36:36.493Z,12.14
2022-11-13T11:39:37.066Z,12.19
2022-11-13T11:42:41.191Z,12.26
2022-11-13T11:45:34.135Z,12.36
2022-11-13T11:48:25.181Z,12.41
2022-11-13T11:51:21.740Z,12.42
2022-11-13T11:54:29.602Z,12.45
2022-11-13T11:57:44.079Z,12.54
2022-11-13T12:00:32.731Z,12.60
2022-11-13T12:03:18.664Z,12.62
2022-11-13T12:06:15.806Z,12.65
2022-11-13T12:09:25.548Z,12.82
2022-11-13T12:12:34.438Z,12.84
2022-11-13T12:15:29.395Z,12.80
2022-11-13T12:18:36.871Z,12.91
2022-11-13T12:21:25.098Z,12.89
2022-11-13T12:24:38.828Z,12.88
2022-11-13T12:27:35.835Z,12.95
2022-11-13T12:30:57.887Z,12.96
2022-11-13T12:33:56.912Z,12.99
2022-11-13T12:36:46.362Z,13.02
2022-11-13T12:39:34.689Z,13.13
2022-11-13T12:42:27.968Z,13.09
2022-11-13T12:45:20.168Z,13.08
2022-11-13T12:48:36.585Z,13.17
2022-11-13T12:51:22.943Z,13.21
2022-11-13T12:54:10.227Z,13.23
2022-11-13T12:57:06.428Z,13.21
2022-11-13T12:59:57.184Z,13.39
2022-11-13T13:02:55.614Z,13.36
2022-11-13T13:06:27.700Z,13.40
2022-11-13T13:09:28.474Z,13.42
2022-11-13T13:12:29.620Z,13.44
2022-11-13T13:15:27.947Z,13.47
2022-11-13T13:18:35.609Z,13.39
2022-11-13T13:21:21.494Z,13.62
2022-11-13T13:24:30.597Z,13.44
2022-11-13T13:27:27.870Z,13.51
2022-11-13T13:30:22.382Z,13.56
2022-11-13T13:33:22.618Z,13.52
2022-11-13T13:36:40.671Z,13.57
2022-11-13T13:39:51.783Z,13.56
2022-11-13T13:42:52.437Z,13.49
2022-11-13T13:46:13.585Z,13.47
2022-11-13T13:49:05.055Z,13.52
2022-11-13T13:51:55.675Z,13.73
2022-11-13T13:54:43.133Z,13.64
2022-11-13T13:57:30.432Z,13.45
2022-11-13T14:00:18.512Z,13.34
2022-11-13T14:03:04.528Z,13.35
2022-11-13T14:05:50.352Z,13.25
2022-11-13T14:08:37.453Z,13.18
2022-11-13T14:11:29.828Z,13.19
2022-11-13T14:14:23.985Z,13.10
2022-11-13T14:17:11.412Z,13.11
2022-11-13T14:20:01.741Z,13.18
2022-11-13T14:22:55.065Z,13.23
2022-11-13T14:25:43.363Z,13.24
2022-11-13T14:28:32.218Z,13.26
2022-11-13T14:31:18.534Z,13.30
2022-11-13T14:34:14.875Z,13.37
2022-11-13T14:37:18.569Z,13.55
2022-11-13T14:40:37.450Z,13.52
2022-11-13T14:43:27.635Z,13.85
2022-11-13T14:46:45.462Z,13.62
2022-11-13T14:49:36.753Z,13.59
2022-11-13T14:52:27.601Z,13.44
2022-11-13T14:55:31.525Z,13.48
2022-11-13T14:58:32.071Z,13.46
2022-11-13T15:01:23.060Z,13.55
2022-11-13T15:04:09.387Z,13.43
2022-11-13T15:07:01.121Z,13.21
2022-11-13T15:09:47.548Z,13.06
2022-11-13T15:12:33.336Z,13.27
2022-11-13T15:15:23.842Z,13.21
2022-11-13T15:18:16.508Z,13.20
2022-11-13T15:21:02.251Z,13.11
2022-11-13T15:23:48.261Z,13.07
2022-11-13T15:26:34.448Z,13.09
2022-11-13T15:29:20.808Z,12.93
2022-11-13T15:32:10.757Z,12.70
2022-11-13T15:34:56.727Z,12.82
2022-11-13T15:37:43.098Z,12.70
2022-11-13T15:40:29.416Z,12.66
2022-11-13T15:43:19.451Z,12.56
2022-11-13T15:46:05.583Z,12.40
2022-11-13T15:48:51.751Z,12.05
2022-11-13T15:51:43.779Z,11.78
2022-11-13T15:54:32.378Z,11.50
2022-11-13T15:57:24.861Z,11.51
2022-11-13T16:00:15.782Z,11.26
2022-11-13T16:03:04.399Z,10.98
2022-11-13T16:05:51.230Z,10.75
2022-11-13T16:08:37.201Z,10.64
2022-11-13T16:11:23.236Z,10.53
2022-11-13T16:14:09.539Z,10.39
2022-11-13T16:16:55.851Z,10.39
2022-11-13T16:19:49.165Z,10.24
2022-11-13T16:22:35.298Z,10.13
2022-11-13T16:25:22.476Z,10.07
2022-11-13T16:28:16.187Z,10.05
2022-11-13T16:31:02.904Z,10.04
2022-11-13T16:33:49.467Z,9.94
2022-11-13T16:36:35.513Z,9.89
2022-11-13T16:39:21.799Z,9.76
2022-11-13T16:42:08.046Z,9.82
2022-11-13T16:44:54.167Z,9.76
2022-11-13T16:47:40.574Z,9.70
2022-11-13T16:50:31.395Z,9.63
2022-11-13T16:53:17.579Z,9.55
2022-11-13T16:56:11.479Z,9.44
2022-11-13T16:58:58.578Z,9.40
2022-11-13T17:01:45.047Z,9.30
2022-11-13T17:04:31.082Z,9.17
2022-11-13T17:07:17.586Z,8.90
2022-11-13T17:10:29.646Z,8.92
2022-11-13T17:13:12.443Z,8.78
2022-11-13T17:16:01.368Z,8.58
2022-11-13T17:18:52.869Z,8.62
2022-11-13T17:21:43.759Z,8.56
2022-11-13T17:24:30.642Z,8.40
2022-11-13T17:27:17.741Z,8.31
2022-11-13T17:30:04.924Z,8.30
2022-11-13T17:32:51.047Z,8.23
2022-11-13T17:35:37.672Z,8.13
2022-11-13T17:38:24.060Z,8.07
2022-11-13T17:41:11.871Z,8.04
2022-11-13T17:44:01.219Z,7.91
2022-11-13T17:46:48.496Z,7.91
2022-11-13T17:49:34.599Z,7.82
2022-11-13T17:52:20.756Z,7.77
2022-11-13T17:55:10.736Z,7.77
2022-11-13T17:58:00.677Z,7.83
2022-11-13T18:00:46.419Z,7.86
2022-11-13T18:03:32.671Z,7.88
2022-11-13T18:06:20.377Z,7.89
2022-11-13T18:09:06.604Z,7.89
2022-11-13T18:11:52.732Z,7.85
2022-11-13T18:14:39.606Z,7.58
2022-11-13T18:17:25.606Z,7.36
2022-11-13T18:20:12.053Z,7.42
2022-11-13T18:22:58.972Z,7.39
2022-11-13T18:25:44.697Z,7.28
2022-11-13T18:28:31.068Z,7.37
2022-11-13T18:31:18.924Z,7.28
2022-11-13T18:34:06.371Z,7.32
2022-11-13T18:36:52.786Z,7.34
2022-11-13T18:39:39.793Z,7.32
2022-11-13T18:42:25.806Z,7.17
2022-11-13T18:45:12.344Z,7.00
2022-11-13T18:47:58.755Z,6.89
2022-11-13T18:50:55.414Z,6.89
2022-11-13T18:53:43.849Z,7.01
2022-11-13T18:56:32.022Z,6.99
2022-11-13T18:59:18.048Z,6.98
2022-11-13T19:02:04.497Z,6.85
2022-11-13T19:04:50.502Z,6.82
2022-11-13T19:07:36.948Z,6.79
2022-11-13T19:10:24.091Z,6.78
2022-11-13T19:13:11.048Z,6.72
2022-11-13T19:15:57.754Z,6.85
2022-11-13T19:18:51.223Z,6.82
2022-11-13T19:21:37.906Z,6.52
2022-11-13T19:24:24.367Z,6.47
2022-11-13T19:27:10.401Z,6.48
2022-11-13T19:29:56.548Z,6.49
2022-11-13T19:32:43.515Z,6.51
2022-11-13T19:35:29.419Z,6.49
2022-11-13T19:38:16.199Z,6.44
2022-11-13T19:41:03.026Z,6.38
2022-11-13T19:43:49.723Z,6.30
2022-11-13T19:46:36.125Z,6.28
2022-11-13T19:49:22.101Z,6.25
2022-11-13T19:52:08.284Z,6.34
2022-11-13T19:54:54.777Z,6.31
2022-11-13T19:57:46.018Z,6.31
2022-11-13T20:00:32.642Z,6.33
2022-11-13T20:03:19.971Z,6.21
2022-11-13T20:06:06.736Z,6.30
2022-11-13T20:08:53.017Z,6.21
2022-11-13T20:11:39.101Z,6.17
2022-11-13T20:14:25.674Z,6.15
2022-11-13T20:17:11.618Z,6.14
2022-11-13T20:20:00.935Z,6.14
2022-11-13T20:22:47.255Z,6.19
2022-11-13T20:25:33.734Z,6.18
2022-11-13T20:28:19.940Z,6.02
2022-11-13T20:31:20.446Z,6.08
2022-11-13T20:34:06.780Z,6.05
2022-11-13T20:36:53.355Z,6.06
2022-11-13T20:39:41.939Z,6.04
2022-11-13T20:42:28.221Z,6.03
2022-11-13T20:45:14.616Z,5.99
2022-11-13T20:48:00.721Z,5.90
2022-11-13T20:50:46.836Z,5.85
2022-11-13T20:53:33.462Z,5.77
2022-11-13T20:56:21.508Z,5.68
2022-11-13T20:59:07.636Z,5.82
2022-11-13T21:01:54.501Z,5.87
2022-11-13T21:04:40.918Z,5.80
2022-11-13T21:07:27.422Z,5.59
2022-11-13T21:10:13.735Z,5.58
2022-11-13T21:12:59.857Z,5.59
2022-11-13T21:15:47.171Z,5.48
2022-11-13T21:18:33.760Z,5.65
2022-11-13T21:21:21.764Z,5.59
2022-11-13T21:24:08.140Z,5.57
2022-11-13T21:26:54.287Z,5.59
2022-11-13T21:29:40.257Z,5.59
2022-11-13T21:32:26.094Z,5.50
2022-11-13T21:35:12.103Z,5.35
2022-11-13T21:37:58.204Z,5.29
2022-11-13T21:41:04.144Z,5.39
2022-11-13T21:44:04.786Z,5.38
2022-11-13T21:46:50.467Z,5.34
2022-11-13T21:49:36.954Z,5.29
2022-11-13T21:52:22.797Z,5.31
2022-11-13T21:55:09.487Z,5.25
2022-11-13T21:57:55.946Z,5.20
2022-11-13T22:00:41.779Z,5.24
2022-11-13T22:03:28.301Z,5.27
2022-11-13T22:06:27.102Z,5.27
2022-11-13T22:09:24.498Z,5.27
2022-11-13T22:12:11.170Z,5.13
2022-11-13T22:14:57.246Z,5.20
2022-11-13T22:17:43.124Z,5.24
2022-11-13T22:20:29.542Z,5.24
2022-11-13T22:23:16.023Z,5.29
2022-11-13T22:26:03.172Z,5.32
2022-11-13T22:28:49.798Z,5.23
2022-11-13T22:31:36.176Z,5.19
2022-11-13T22:34:22.011Z,5.18
2022-11-13T22:37:08.334Z,5.07
2022-11-13T22:39:54.477Z,5.15
2022-11-13T22:42:40.677Z,5.03
2022-11-13T22:45:26.755Z,4.99
2022-11-13T22:48:12.549Z,5.18
2022-11-13T22:51:06.392Z,5.23
2022-11-13T22:53:54.666Z,5.25
2022-11-13T22:56:41.669Z,5.17
2022-11-13T22:59:27.568Z,5.15
2022-11-13T23:02:13.579Z,5.10
2022-11-13T23:04:59.450Z,5.06
2022-11-13T23:07:45.226Z,4.93
2022-11-13T23:10:31.088Z,4.52
2022-11-13T23:13:16.981Z,4.60
2022-11-13T23:16:02.906Z,4.48
2022-11-13T23:18:50.076Z,4.78
2022-11-13T23:21:36.169Z,4.84
2022-11-13T23:24:22.791Z,4.89
2022-11-13T23:27:09.127Z,4.95
2022-11-13T23:29:55.634Z,4.95
2022-11-13T23:32:41.724Z,4.80
2022-11-13T23:35:27.733Z,4.65
2022-11-13T23:38:13.571Z,4.55
2022-11-13T23:41:00.690Z,4.32
2022-11-13T23:44:07.710Z,4.42
2022-11-13T23:46:53.033Z,4.18
2022-11-13T23:49:39.068Z,3.92
2022-11-13T23:52:25.507Z,3.96
2022-11-13T23:55:11.788Z,4.06
2022-11-13T23:58:03.140Z,4.19
